Time;durP1;ratioP1;P1;durP2;ratioP2;P2;SDS_P1;SDS_P2;PMS_P1;PMS_P2;Temp;Humidity;BMP_temperature;BMP_pressure;BME280_temperature;BME280_humidity;BME280_pressure;Samples;Min_cycle;Max_cycle;Signal;HPM_P1;HPM_P2
2021/12/09 00:02:20;;;;;;;18.97;10.07;;;0.10;99.90;;;;;;4960129;29;20062;-96
2021/12/09 00:04:47;;;;;;;23.67;10.23;;;0.90;99.90;;;;;;4958734;29;20075;-95
2021/12/09 00:07:13;;;;;;;20.00;9.60;;;1.30;99.90;;;;;;4958401;29;20043;-95
2021/12/09 00:09:39;;;;;;;20.43;10.53;;;0.60;99.90;;;;;;4959499;29;20039;-95
2021/12/09 00:12:05;;;;;;;23.20;11.00;;;0.20;99.90;;;;;;4960076;29;20035;-94
2021/12/09 00:14:33;;;;;;;22.73;10.30;;;0.20;99.90;;;;;;4957997;28;20050;-94
2021/12/09 00:17:06;;;;;;;20.47;11.13;;;0.00;99.90;;;;;;4957854;29;20348;-94
2021/12/09 00:19:33;;;;;;;22.48;10.38;;;0.10;99.90;;;;;;4958434;29;20047;-95
2021/12/09 00:21:59;;;;;;;24.57;10.53;;;-0.10;99.90;;;;;;4957507;29;20046;-94
2021/12/09 00:24:26;;;;;;;24.90;11.07;;;-0.10;99.90;;;;;;4957149;29;20035;-95
2021/12/09 00:26:52;;;;;;;25.17;11.10;;;0.50;99.90;;;;;;4958779;29;20031;-95
2021/12/09 00:29:18;;;;;;;21.80;10.50;;;0.00;99.90;;;;;;4958516;28;20040;-95
2021/12/09 00:31:46;;;;;;;23.30;10.07;;;0.10;99.90;;;;;;4976640;28;20035;-95
2021/12/09 00:34:12;;;;;;;25.80;11.20;;;-0.40;99.90;;;;;;4979669;28;20054;-93
2021/12/09 00:36:42;;;;;;;23.00;10.20;;;0.00;99.90;;;;;;4980078;28;20039;-94
2021/12/09 00:39:10;;;;;;;24.83;10.87;;;0.60;99.90;;;;;;4965802;28;20101;-94
2021/12/09 00:41:37;;;;;;;23.33;10.73;;;-0.10;99.90;;;;;;4957210;29;20065;-95
2021/12/09 00:44:02;;;;;;;21.03;10.27;;;0.50;99.90;;;;;;4956674;29;20044;-94
2021/12/09 00:46:28;;;;;;;22.23;10.33;;;0.10;99.90;;;;;;4956594;29;20666;-94
2021/12/09 00:48:54;;;;;;;24.33;10.73;;;0.00;99.90;;;;;;4955504;29;20042;-94
2021/12/09 00:51:21;;;;;;;20.80;10.17;;;-0.10;99.90;;;;;;4956286;29;20774;-93
2021/12/09 00:53:47;;;;;;;25.03;10.30;;;-0.10;99.90;;;;;;4955810;29;20055;-94
2021/12/09 00:56:13;;;;;;;21.97;10.27;;;-0.20;99.90;;;;;;4956134;29;20047;-94
2021/12/09 00:58:40;;;;;;;20.03;9.20;;;-0.20;99.90;;;;;;4956461;29;20050;-94
2021/12/09 01:01:07;;;;;;;21.10;9.73;;;1.00;99.90;;;;;;4956412;29;20047;-93
2021/12/09 01:03:34;;;;;;;23.30;10.70;;;0.20;99.90;;;;;;4955248;29;20035;-94
2021/12/09 01:05:59;;;;;;;21.00;9.50;;;-0.10;99.90;;;;;;4955802;29;20472;-95
2021/12/09 01:08:25;;;;;;;20.63;9.90;;;-0.10;99.90;;;;;;4956202;29;20074;-94
2021/12/09 01:10:51;;;;;;;21.30;10.57;;;-0.10;99.90;;;;;;4956146;29;20040;-94
2021/12/09 01:13:17;;;;;;;21.07;10.67;;;0.10;99.90;;;;;;4956162;29;20051;-94
2021/12/09 01:15:43;;;;;;;22.97;10.90;;;0.00;99.90;;;;;;4955583;29;20467;-94
2021/12/09 01:18:08;;;;;;;21.47;11.40;;;1.30;99.90;;;;;;4955647;29;20085;-94
2021/12/09 01:20:35;;;;;;;22.90;10.77;;;-0.10;99.90;;;;;;4956021;29;20062;-94
2021/12/09 01:23:02;;;;;;;25.00;11.67;;;0.20;99.90;;;;;;4955830;29;20518;-94
2021/12/09 01:25:35;;;;;;;23.10;11.87;;;-0.30;99.90;;;;;;4955158;28;20078;-95
2021/12/09 01:28:03;;;;;;;24.45;11.80;;;-0.20;99.90;;;;;;4955877;29;20047;-94
2021/12/09 01:30:28;;;;;;;28.03;13.13;;;-0.30;99.90;;;;;;4956306;29;20054;-94
2021/12/09 01:32:55;;;;;;;27.33;12.03;;;-0.10;99.90;;;;;;4955412;29;20043;-94
2021/12/09 01:35:30;;;;;;;27.53;12.20;;;-0.10;99.90;;;;;;4955719;29;20117;-94
2021/12/09 01:37:59;;;;;;;27.77;12.77;;;0.00;99.90;;;;;;4978227;28;20037;-93
2021/12/09 01:40:27;;;;;;;28.10;12.77;;;-0.40;99.90;;;;;;4961361;28;20039;-95
2021/12/09 01:42:54;;;;;;;24.43;11.97;;;-0.20;99.90;;;;;;4955501;29;20126;-93
2021/12/09 01:45:20;;;;;;;26.60;11.60;;;3.00;99.90;;;;;;4961469;28;20058;-94
2021/12/09 01:47:46;;;;;;;25.33;12.30;;;-0.30;99.90;;;;;;4978269;28;20141;-94
2021/12/09 01:50:13;;;;;;;20.90;11.33;;;0.50;99.90;;;;;;4955878;29;20054;-94
2021/12/09 01:52:39;;;;;;;23.27;11.80;;;-0.50;99.90;;;;;;4954761;29;20055;-94
2021/12/09 01:55:07;;;;;;;25.73;12.67;;;0.90;99.90;;;;;;4955279;29;20055;-94
2021/12/09 01:57:32;;;;;;;23.50;12.47;;;-0.30;99.90;;;;;;4955078;29;20103;-94
2021/12/09 01:59:58;;;;;;;27.03;12.30;;;0.90;99.90;;;;;;4955657;29;20039;-94
2021/12/09 02:02:24;;;;;;;24.23;11.93;;;-0.40;99.90;;;;;;4955581;29;20067;-94
2021/12/09 02:04:49;;;;;;;25.50;12.10;;;-0.30;99.90;;;;;;4955187;29;20122;-94
2021/12/09 02:07:16;;;;;;;25.00;12.30;;;-0.40;99.90;;;;;;4954829;29;20127;-94
2021/12/09 02:09:42;;;;;;;25.87;11.70;;;-0.40;99.90;;;;;;4955652;29;20032;-94
2021/12/09 02:12:08;;;;;;;26.57;12.33;;;-0.40;99.90;;;;;;4955179;29;20098;-94
2021/12/09 02:14:36;;;;;;;25.97;12.73;;;-0.40;99.90;;;;;;4955362;29;20507;-94
2021/12/09 02:17:03;;;;;;;21.23;11.40;;;0.60;99.90;;;;;;4955519;29;20039;-94
2021/12/09 02:19:28;;;;;;;23.80;12.23;;;-0.20;99.90;;;;;;4955858;29;20522;-94
2021/12/09 02:21:57;;;;;;;21.03;11.47;;;-0.40;99.90;;;;;;4954301;29;20051;-95
2021/12/09 02:24:23;;;;;;;23.93;12.23;;;0.80;99.90;;;;;;4955266;29;20467;-94
2021/12/09 02:26:49;;;;;;;27.43;12.63;;;-0.30;99.90;;;;;;4955429;29;20070;-94
2021/12/09 02:29:17;;;;;;;28.67;13.13;;;-0.60;99.90;;;;;;4955818;29;20039;-94
2021/12/09 02:31:50;;;;;;;23.57;12.50;;;0.70;99.90;;;;;;4955149;29;20035;-95
2021/12/09 02:34:16;;;;;;;30.45;12.82;;;0.70;99.90;;;;;;4955415;29;20035;-94
2021/12/09 02:36:42;;;;;;;24.50;11.87;;;-0.20;99.90;;;;;;4957210;28;20625;-94
2021/12/09 02:39:12;;;;;;;26.77;12.30;;;0.10;99.90;;;;;;4958458;29;20110;-94
2021/12/09 02:41:44;;;;;;;29.73;13.03;;;-0.40;99.90;;;;;;4959024;29;20054;-92
2021/12/09 02:44:13;;;;;;;29.40;13.07;;;-0.30;99.90;;;;;;4958702;29;20558;-94
2021/12/09 02:46:40;;;;;;;26.63;13.13;;;-0.50;99.90;;;;;;4958451;29;20071;-94
2021/12/09 02:49:18;;;;;;;27.17;12.60;;;0.10;99.90;;;;;;4958668;29;20078;-94
2021/12/09 02:51:49;;;;;;;28.13;12.77;;;-0.40;99.90;;;;;;4958778;29;20051;-94
2021/12/09 02:54:17;;;;;;;29.37;13.63;;;-0.10;99.90;;;;;;4959338;29;20058;-94
2021/12/09 02:56:45;;;;;;;29.60;13.33;;;-0.50;99.90;;;;;;4958583;29;20043;-95
2021/12/09 02:59:11;;;;;;;31.30;14.30;;;0.20;99.90;;;;;;4958513;29;20507;-95
2021/12/09 03:01:52;;;;;;;29.87;13.77;;;-0.60;99.90;;;;;;4957732;29;20043;-95
2021/12/09 03:04:18;;;;;;;29.03;14.57;;;-0.60;99.90;;;;;;4958169;29;20083;-94
2021/12/09 03:06:45;;;;;;;32.17;14.27;;;0.50;99.90;;;;;;4957113;29;20126;-95
2021/12/09 03:09:23;;;;;;;37.67;16.30;;;-0.70;99.90;;;;;;4958069;29;20043;-94
2021/12/09 03:11:54;;;;;;;34.83;14.53;;;-0.50;99.90;;;;;;4958666;29;20039;-94
2021/12/09 03:14:26;;;;;;;32.10;14.90;;;0.30;99.90;;;;;;4957708;29;20138;-95
2021/12/09 03:16:52;;;;;;;35.97;15.27;;;-0.70;99.90;;;;;;4958574;29;20043;-94
2021/12/09 03:19:18;;;;;;;35.67;14.80;;;-0.80;99.90;;;;;;4957890;29;20057;-94
2021/12/09 03:21:49;;;;;;;35.47;14.87;;;-0.20;99.90;;;;;;4956671;29;20139;-94
2021/12/09 03:24:18;;;;;;;32.47;14.47;;;-1.00;99.90;;;;;;4957300;29;20039;-94
2021/12/09 03:26:56;;;;;;;32.80;14.47;;;-0.90;99.90;;;;;;4957966;29;20039;-94
2021/12/09 03:29:25;;;;;;;36.30;15.67;;;-0.20;99.90;;;;;;4960422;28;20054;-94
2021/12/09 03:31:53;;;;;;;34.03;14.87;;;-0.80;99.90;;;;;;4975756;28;20035;-93
2021/12/09 03:34:22;;;;;;;35.57;15.57;;;-0.90;99.90;;;;;;4981393;28;20026;-94
2021/12/09 03:36:59;;;;;;;34.63;14.87;;;-0.90;99.90;;;;;;4981051;28;20030;-94
2021/12/09 03:39:29;;;;;;;31.43;15.93;;;0.00;99.90;;;;;;4981294;28;20043;-93
2021/12/09 03:41:56;;;;;;;34.87;15.80;;;-1.00;99.90;;;;;;4970548;28;20047;-95
2021/12/09 03:44:23;;;;;;;37.23;16.17;;;-0.70;99.90;;;;;;4957481;29;20044;-94
2021/12/09 03:46:51;;;;;;;40.93;16.10;;;-0.60;99.90;;;;;;4957366;29;20058;-94
2021/12/09 03:49:18;;;;;;;35.93;15.33;;;0.70;99.90;;;;;;4957331;28;20043;-94
2021/12/09 03:51:44;;;;;;;34.23;16.13;;;-0.40;99.90;;;;;;4956702;29;20055;-94
2021/12/09 03:54:12;;;;;;;35.23;15.57;;;-0.60;99.90;;;;;;4957543;29;20047;-95
2021/12/09 03:56:39;;;;;;;33.50;14.70;;;-0.70;99.90;;;;;;4956620;29;20090;-94
2021/12/09 03:59:07;;;;;;;36.80;15.27;;;-0.70;99.90;;;;;;4957279;29;20035;-94
2021/12/09 04:01:34;;;;;;;35.83;14.43;;;0.20;99.90;;;;;;4956478;29;20039;-94
2021/12/09 04:04:01;;;;;;;28.60;15.13;;;0.40;99.90;;;;;;4956632;29;20559;-95
2021/12/09 04:06:29;;;;;;;31.00;14.47;;;-0.70;99.90;;;;;;4957486;29;20502;-94
2021/12/09 04:08:55;;;;;;;33.93;15.77;;;-0.30;99.90;;;;;;4957000;29;20122;-95
2021/12/09 04:11:21;;;;;;;31.33;15.43;;;0.30;99.90;;;;;;4956806;29;20043;-95
2021/12/09 04:13:47;;;;;;;29.83;14.40;;;-0.60;99.90;;;;;;4956863;29;20043;-94
2021/12/09 04:16:16;;;;;;;30.77;15.13;;;-0.70;99.90;;;;;;4956564;29;20105;-95
2021/12/09 04:18:47;;;;;;;35.10;15.83;;;-0.80;99.90;;;;;;4956539;29;20074;-95
2021/12/09 04:21:13;;;;;;;33.53;15.70;;;-0.70;99.90;;;;;;4957514;29;20194;-94
2021/12/09 04:23:39;;;;;;;31.27;15.20;;;-0.70;99.90;;;;;;4957051;29;20106;-94
2021/12/09 04:26:06;;;;;;;43.90;17.97;;;0.10;99.90;;;;;;4956617;29;20035;-94
2021/12/09 04:28:33;;;;;;;35.40;16.87;;;-0.50;99.90;;;;;;4957076;29;20035;-95
2021/12/09 04:30:59;;;;;;;38.60;17.10;;;-0.60;99.90;;;;;;4957531;29;20053;-94
2021/12/09 04:33:25;;;;;;;40.07;17.63;;;-0.70;99.90;;;;;;4956548;29;20480;-93
2021/12/09 04:35:51;;;;;;;37.97;17.10;;;-0.90;99.90;;;;;;4956367;29;20047;-95
2021/12/09 04:38:17;;;;;;;31.97;16.20;;;-0.80;99.90;;;;;;4956839;29;20049;-94
2021/12/09 04:40:43;;;;;;;31.10;16.23;;;0.60;99.90;;;;;;4956677;29;20126;-94
2021/12/09 04:43:08;;;;;;;35.87;15.50;;;-0.60;99.90;;;;;;4956632;29;20119;-94
2021/12/09 04:45:34;;;;;;;33.93;16.13;;;0.90;99.90;;;;;;4956394;29;20126;-94
2021/12/09 04:48:00;;;;;;;37.43;16.60;;;-0.80;99.90;;;;;;4955079;29;20043;-94
2021/12/09 04:50:26;;;;;;;36.47;15.73;;;-0.80;99.90;;;;;;4956302;29;20039;-94
2021/12/09 04:52:52;;;;;;;36.70;17.13;;;-0.40;99.90;;;;;;4955623;29;20090;-94
2021/12/09 04:55:18;;;;;;;35.70;16.53;;;-0.90;99.90;;;;;;4956509;29;20047;-95
2021/12/09 04:57:44;;;;;;;30.27;15.97;;;-0.80;99.90;;;;;;4956024;29;20043;-94
2021/12/09 05:00:20;;;;;;;36.20;16.40;;;-0.80;99.90;;;;;;4955422;28;20416;-94
2021/12/09 05:05:12;;;;;;;33.90;16.73;;;-0.90;99.90;;;;;;4955489;29;20069;-95
2021/12/09 05:07:42;;;;;;;34.90;17.60;;;-0.90;99.90;;;;;;4955111;29;20031;-95
2021/12/09 05:10:08;;;;;;;36.90;17.83;;;0.60;99.90;;;;;;4956558;29;20125;-94
2021/12/09 05:12:46;;;;;;;34.60;18.70;;;-0.70;99.90;;;;;;4956585;29;20514;-94
2021/12/09 05:15:11;;;;;;;35.57;18.53;;;0.00;99.90;;;;;;4957508;29;20042;-95
2021/12/09 05:17:38;;;;;;;34.20;18.53;;;-0.70;99.90;;;;;;4955690;29;20035;-94
2021/12/09 05:20:05;;;;;;;36.07;18.07;;;-0.80;99.90;;;;;;4957780;29;20074;-95
2021/12/09 05:22:31;;;;;;;37.27;18.23;;;-0.60;99.90;;;;;;4955529;29;20042;-95
2021/12/09 05:24:59;;;;;;;40.97;19.60;;;-1.00;99.90;;;;;;4977890;28;20050;-93
2021/12/09 05:27:38;;;;;;;37.10;18.10;;;0.00;99.90;;;;;;4964219;28;20388;-94
2021/12/09 05:30:07;;;;;;;38.33;19.77;;;-0.80;99.90;;;;;;4955793;29;20397;-95
2021/12/09 05:32:38;;;;;;;41.80;20.77;;;-0.50;99.90;;;;;;4965182;28;20031;-93
2021/12/09 05:35:18;;;;;;;42.23;21.13;;;-0.40;99.90;;;;;;4972533;28;20035;-95
2021/12/09 05:37:56;;;;;;;43.63;20.30;;;-0.80;99.90;;;;;;4959744;28;20063;-95
2021/12/09 05:40:21;;;;;;;44.87;21.00;;;-0.80;99.90;;;;;;4956976;29;20050;-95
2021/12/09 05:43:02;;;;;;;47.07;22.07;;;0.30;99.90;;;;;;4955401;29;20345;-94
2021/12/09 05:45:31;;;;;;;48.33;22.13;;;-0.70;99.90;;;;;;4957039;29;20035;-96
2021/12/09 05:47:57;;;;;;;46.50;22.80;;;-0.40;99.90;;;;;;4956041;29;20043;-94
2021/12/09 05:50:32;;;;;;;46.47;21.60;;;-0.70;99.90;;;;;;4955769;29;20551;-94
2021/12/09 05:52:57;;;;;;;48.83;21.90;;;-0.30;99.90;;;;;;4955337;29;20127;-95
2021/12/09 05:55:23;;;;;;;42.33;20.20;;;-0.70;99.90;;;;;;4956472;29;20110;-94
2021/12/09 05:57:50;;;;;;;41.00;20.83;;;-0.60;99.90;;;;;;4958123;29;20071;-94
2021/12/09 06:00:16;;;;;;;42.70;20.53;;;-0.50;99.90;;;;;;4956536;29;20040;-94
2021/12/09 06:02:42;;;;;;;38.57;20.20;;;-0.50;99.90;;;;;;4956622;29;20070;-94
2021/12/09 06:05:10;;;;;;;42.87;20.90;;;-0.80;99.90;;;;;;4956822;29;20115;-95
2021/12/09 06:07:51;;;;;;;43.53;20.57;;;-0.80;99.90;;;;;;4955469;29;20111;-94
2021/12/09 06:10:17;;;;;;;38.10;19.33;;;-0.90;99.90;;;;;;4954836;29;20039;-95
2021/12/09 06:12:52;;;;;;;46.47;19.97;;;-0.70;99.90;;;;;;4958729;28;20061;-95
2021/12/09 06:15:35;;;;;;;41.40;19.23;;;-0.70;99.90;;;;;;4959891;29;20052;-95
2021/12/09 06:18:07;;;;;;;41.40;20.00;;;0.00;99.90;;;;;;4958224;29;20067;-96
2021/12/09 06:20:42;;;;;;;42.27;20.30;;;1.00;99.90;;;;;;4959190;29;20048;-94
2021/12/09 06:23:18;;;;;;;40.77;20.57;;;-0.80;99.90;;;;;;4959204;29;20039;-95
2021/12/09 06:25:44;;;;;;;37.57;19.57;;;-0.40;99.90;;;;;;4958932;29;20148;-94
2021/12/09 06:28:21;;;;;;;41.33;19.17;;;-0.70;99.90;;;;;;4959155;29;20035;-94
2021/12/09 06:30:47;;;;;;;40.23;20.00;;;0.50;99.90;;;;;;4959769;29;20074;-94
2021/12/09 06:33:18;;;;;;;47.13;20.57;;;-0.80;99.90;;;;;;4960036;28;20407;-94
2021/12/09 06:35:44;;;;;;;46.07;20.47;;;-0.90;99.90;;;;;;4979346;28;20067;-93
2021/12/09 06:38:15;;;;;;;40.60;19.83;;;-0.50;99.90;;;;;;4979387;28;20051;-94
2021/12/09 06:40:40;;;;;;;44.60;21.67;;;-1.30;99.90;;;;;;4982172;28;20039;-94
2021/12/09 06:43:06;;;;;;;46.47;20.67;;;-0.80;99.90;;;;;;4966709;28;20039;-95
2021/12/09 06:45:33;;;;;;;42.53;20.23;;;-0.90;99.90;;;;;;4958936;29;20046;-94
2021/12/09 06:47:58;;;;;;;41.57;19.27;;;-1.00;99.90;;;;;;4958567;29;20047;-95
2021/12/09 06:50:24;;;;;;;41.23;20.80;;;-1.10;99.90;;;;;;4959060;29;20126;-95
2021/12/09 06:52:52;;;;;;;38.53;19.37;;;-0.90;99.90;;;;;;4957606;29;20086;-95
2021/12/09 06:55:19;;;;;;;44.40;19.93;;;-1.00;99.90;;;;;;4958849;29;20502;-94
2021/12/09 06:57:53;;;;;;;40.77;20.27;;;0.30;99.90;;;;;;4958395;29;20503;-94
2021/12/09 07:00:30;;;;;;;43.70;19.87;;;-0.90;99.90;;;;;;4957686;29;20043;-95
2021/12/09 07:02:56;;;;;;;40.67;19.90;;;-1.10;99.90;;;;;;4958515;29;20082;-94
2021/12/09 07:05:24;;;;;;;44.13;21.40;;;-0.20;99.90;;;;;;4958626;29;20129;-95
2021/12/09 07:07:50;;;;;;;36.53;19.03;;;-1.10;99.90;;;;;;4957857;29;20042;-95
2021/12/09 07:10:17;;;;;;;38.77;20.37;;;-1.00;99.90;;;;;;4958764;29;20138;-95
2021/12/09 07:12:43;;;;;;;45.97;20.53;;;-0.40;99.90;;;;;;4958016;29;20031;-95
2021/12/09 07:15:26;;;;;;;43.80;20.40;;;-0.80;99.90;;;;;;4958260;29;20047;-96
2021/12/09 07:17:51;;;;;;;43.33;20.50;;;-0.50;99.90;;;;;;4973778;28;20090;-93
2021/12/09 07:20:23;;;;;;;39.23;19.30;;;0.30;99.90;;;;;;4971649;28;20075;-94
2021/12/09 07:22:49;;;;;;;41.97;21.30;;;-0.80;99.90;;;;;;4954051;28;20055;-87
2021/12/09 07:25:17;;;;;;;42.47;21.33;;;-1.20;99.90;;;;;;4956403;29;20066;-86
2021/12/09 07:27:42;;;;;;;42.17;20.53;;;-1.00;99.90;;;;;;4958889;29;20043;-86
2021/12/09 07:30:11;;;;;;;44.37;20.37;;;-0.90;99.90;;;;;;4957539;28;20434;-87
2021/12/09 07:32:36;;;;;;;43.73;20.03;;;-0.90;99.90;;;;;;4956059;29;20039;-85
2021/12/09 07:35:05;;;;;;;45.97;20.90;;;0.10;99.90;;;;;;4954760;29;20098;-85
2021/12/09 07:37:30;;;;;;;53.63;22.43;;;-0.90;99.90;;;;;;4955800;29;20051;-85
2021/12/09 07:39:59;;;;;;;49.90;21.77;;;-0.40;99.90;;;;;;4955412;29;20137;-85
2021/12/09 07:42:24;;;;;;;54.40;22.10;;;0.10;99.90;;;;;;4955244;29;20182;-85
2021/12/09 07:44:51;;;;;;;52.83;21.03;;;-0.80;99.90;;;;;;4954700;29;20066;-84
2021/12/09 07:47:17;;;;;;;50.77;21.07;;;-0.80;99.90;;;;;;4955505;29;20058;-84
2021/12/09 07:49:44;;;;;;;52.40;21.50;;;-0.80;99.90;;;;;;4948804;28;20031;-85
2021/12/09 07:52:10;;;;;;;53.40;23.47;;;-0.50;99.90;;;;;;4945257;29;20049;-84
2021/12/09 07:54:36;;;;;;;47.77;21.50;;;-0.80;99.90;;;;;;4942571;28;20051;-84
2021/12/09 07:57:02;;;;;;;52.67;21.77;;;0.10;99.90;;;;;;4936942;29;20397;-84
2021/12/09 07:59:28;;;;;;;46.37;21.63;;;0.30;99.90;;;;;;4941950;29;20090;-84
2021/12/09 08:01:54;;;;;;;47.10;20.27;;;-0.80;99.90;;;;;;4943981;29;20396;-84
2021/12/09 08:04:20;;;;;;;43.10;20.80;;;-0.70;99.90;;;;;;4948264;29;20038;-87
2021/12/09 08:06:46;;;;;;;46.07;20.83;;;-0.70;99.90;;;;;;4949712;29;20048;-87
2021/12/09 08:09:12;;;;;;;51.03;21.50;;;-0.60;99.90;;;;;;4936779;29;20044;-82
2021/12/09 08:11:38;;;;;;;45.17;19.77;;;-0.70;99.90;;;;;;4934382;29;20095;-84
2021/12/09 08:14:11;;;;;;;36.03;18.47;;;0.30;99.90;;;;;;4936365;29;20043;-84
2021/12/09 08:16:39;;;;;;;42.97;20.27;;;-0.10;99.90;;;;;;4935296;29;20047;-83
2021/12/09 08:19:07;;;;;;;43.17;20.03;;;-0.60;99.90;;;;;;4934929;29;20551;-83
2021/12/09 08:21:35;;;;;;;42.10;20.50;;;-0.50;99.90;;;;;;4935396;29;20183;-84
2021/12/09 08:24:01;;;;;;;43.43;20.10;;;-0.50;99.90;;;;;;4934246;29;20039;-84
2021/12/09 08:26:27;;;;;;;43.63;19.57;;;-0.50;99.90;;;;;;4944620;29;20451;-84
2021/12/09 08:28:52;;;;;;;37.60;19.30;;;-0.50;99.90;;;;;;4942878;29;20063;-83
2021/12/09 08:31:18;;;;;;;38.83;19.13;;;-0.50;99.90;;;;;;4936261;29;20052;-84
2021/12/09 08:33:43;;;;;;;37.53;18.97;;;-0.30;99.90;;;;;;4935916;29;20087;-84
2021/12/09 08:36:10;;;;;;;43.77;18.67;;;-0.40;99.90;;;;;;4934824;29;20040;-84
2021/12/09 08:38:36;;;;;;;44.90;18.23;;;-0.40;99.90;;;;;;4936586;29;20032;-83
2021/12/09 08:41:03;;;;;;;38.70;18.17;;;-0.30;99.90;;;;;;4952179;29;20055;-83
2021/12/09 08:43:29;;;;;;;37.43;18.17;;;-0.30;99.90;;;;;;4953869;29;20043;-83
2021/12/09 08:45:55;;;;;;;37.30;17.90;;;-0.20;99.90;;;;;;4944553;29;20055;-84
2021/12/09 08:48:23;;;;;;;37.43;17.80;;;-0.20;99.90;;;;;;4938085;29;20043;-83
2021/12/09 08:50:49;;;;;;;34.80;17.67;;;-0.10;99.90;;;;;;4934674;29;20069;-83
2021/12/09 08:53:19;;;;;;;36.40;17.13;;;-0.10;99.90;;;;;;4933853;29;20544;-84
2021/12/09 08:55:44;;;;;;;34.13;17.93;;;0.20;99.90;;;;;;4934361;29;20059;-84
2021/12/09 08:58:12;;;;;;;35.07;17.73;;;0.00;99.90;;;;;;4934614;29;20504;-84
2021/12/09 09:00:39;;;;;;;36.83;16.67;;;0.30;99.90;;;;;;4942564;29;20043;-83
2021/12/09 09:03:05;;;;;;;35.33;16.60;;;0.10;99.90;;;;;;4942541;29;20043;-84
2021/12/09 09:05:35;;;;;;;32.53;17.07;;;0.20;99.90;;;;;;4939105;29;20099;-84
2021/12/09 09:08:02;;;;;;;31.63;16.27;;;0.20;99.90;;;;;;4937984;29;20042;-84
2021/12/09 09:10:32;;;;;;;35.80;16.10;;;0.20;99.90;;;;;;4943005;29;20040;-83
2021/12/09 09:12:59;;;;;;;32.70;16.30;;;0.20;99.90;;;;;;4942539;29;20491;-83
2021/12/09 09:15:27;;;;;;;33.17;15.23;;;0.30;99.90;;;;;;4960521;28;20050;-84
2021/12/09 09:17:52;;;;;;;31.23;15.37;;;0.30;99.90;;;;;;4958171;28;20413;-84
2021/12/09 09:20:22;;;;;;;34.87;15.93;;;0.30;99.90;;;;;;4935257;29;20074;-84
2021/12/09 09:22:48;;;;;;;33.67;15.47;;;0.30;99.90;;;;;;4935536;29;20098;-84
2021/12/09 09:25:22;;;;;;;28.90;14.33;;;0.40;99.90;;;;;;4934888;29;20059;-84
2021/12/09 09:27:49;;;;;;;30.03;15.60;;;0.40;99.90;;;;;;4917572;29;20048;-84
2021/12/09 09:30:18;;;;;;;26.93;14.17;;;0.50;99.90;;;;;;4918573;29;20047;-85
2021/12/09 09:32:50;;;;;;;28.90;14.47;;;0.50;99.90;;;;;;4935946;29;20134;-85
2021/12/09 09:35:17;;;;;;;30.50;14.57;;;0.50;99.90;;;;;;4948044;28;20032;-85
2021/12/09 09:37:44;;;;;;;28.10;14.13;;;0.60;99.90;;;;;;4942907;28;20055;-86
2021/12/09 09:40:13;;;;;;;31.60;14.80;;;0.60;99.90;;;;;;4921803;29;20056;-85
2021/12/09 09:45:11;;;;;;;26.70;13.73;;;0.70;99.90;;;;;;4917896;29;20055;-87
2021/12/09 09:47:37;;;;;;;25.63;13.13;;;0.80;99.90;;;;;;4921769;29;20054;-86
2021/12/09 09:50:05;;;;;;;25.43;13.17;;;0.80;99.90;;;;;;4921859;29;20510;-86
2021/12/09 09:52:31;;;;;;;25.87;12.70;;;0.90;99.90;;;;;;4939191;29;20047;-87
2021/12/09 09:55:00;;;;;;;24.53;11.60;;;1.00;99.90;;;;;;4922464;29;20098;-86
2021/12/09 09:57:26;;;;;;;21.97;12.13;;;1.00;99.90;;;;;;4921508;29;20496;-86
2021/12/09 10:00:03;;;;;;;22.60;11.30;;;1.10;99.90;;;;;;4922483;29;20075;-86
2021/12/09 10:02:52;;;;;;;23.83;11.23;;;2.40;99.90;;;;;;4921438;29;20059;-86
2021/12/09 10:05:37;;;;;;;23.20;10.90;;;1.40;99.90;;;;;;4921610;29;20040;-86
2021/12/09 10:08:04;;;;;;;21.60;10.20;;;1.70;99.90;;;;;;4937851;29;20404;-86
2021/12/09 10:10:40;;;;;;;20.20;10.03;;;1.20;99.90;;;;;;4921415;29;20432;-86
2021/12/09 10:13:18;;;;;;;18.87;9.53;;;1.10;99.90;;;;;;4938627;29;20428;-85
2021/12/09 10:16:01;;;;;;;21.30;8.73;;;1.40;99.90;;;;;;4921273;29;20059;-86
2021/12/09 10:18:48;;;;;;;17.80;8.47;;;1.40;99.90;;;;;;4902141;29;20460;-86
2021/12/09 10:21:35;;;;;;;19.07;8.77;;;1.60;99.90;;;;;;4903079;29;20040;-86
2021/12/09 10:24:18;;;;;;;17.30;8.23;;;2.40;99.90;;;;;;4901835;29;20217;-85
2021/12/09 10:26:46;;;;;;;17.05;8.43;;;1.70;99.90;;;;;;4907628;29;20055;-90
2021/12/09 10:29:30;;;;;;;17.67;7.57;;;2.40;99.90;;;;;;4938246;29;20431;-87
2021/12/09 10:32:14;;;;;;;;;;;2.00;99.90;;;;;;4937964;29;20040;-87
2021/12/09 10:34:49;;;;;;;17.23;7.93;;;2.20;99.90;;;;;;4938456;29;19977;-85
2021/12/09 10:37:29;;;;;;;18.60;8.33;;;2.20;99.90;;;;;;4937357;29;20059;-88
2021/12/09 10:39:57;;;;;;;17.40;7.83;;;3.40;99.90;;;;;;4937224;29;20094;-87
2021/12/09 10:42:33;;;;;;;20.83;8.10;;;2.20;99.90;;;;;;4925367;29;20055;-88
2021/12/09 10:45:11;;;;;;;16.83;7.87;;;2.30;99.90;;;;;;4919461;29;20035;-87
2021/12/09 10:56:00;;;;;;;21.25;8.65;;;3.00;99.90;;;;;;4933164;29;20497;-86
2021/12/09 10:58:31;;;;;;;18.83;8.83;;;3.30;99.90;;;;;;4917446;29;20508;-86
2021/12/09 11:01:17;;;;;;;22.60;9.30;;;1.90;99.90;;;;;;4920924;29;20028;-86
2021/12/09 11:03:46;;;;;;;18.50;8.67;;;2.50;99.90;;;;;;4936251;29;20032;-86
2021/12/09 11:06:15;;;;;;;20.77;9.57;;;3.30;99.90;;;;;;4924791;29;20087;-86
2021/12/09 11:08:43;;;;;;;16.13;8.37;;;2.20;99.90;;;;;;4936952;29;20497;-85
2021/12/09 11:11:34;;;;;;;20.13;9.30;;;2.20;99.90;;;;;;4918925;29;20114;-85
2021/12/09 11:14:09;;;;;;;19.17;9.00;;;2.50;99.90;;;;;;4922365;29;20054;-85
2021/12/09 11:16:39;;;;;;;17.77;9.10;;;2.30;99.90;;;;;;4920140;29;20369;-85
2021/12/09 11:22:19;;;;;;;21.27;9.93;;;2.60;99.90;;;;;;4932333;29;20489;-86
2021/12/09 11:24:53;;;;;;;19.90;10.43;;;3.50;99.90;;;;;;4921491;29;20046;-86
2021/12/09 11:27:23;;;;;;;20.92;9.88;;;2.60;99.90;;;;;;4920247;29;20047;-86
2021/12/09 11:29:52;;;;;;;19.00;9.80;;;2.50;99.90;;;;;;4936333;29;20039;-85
2021/12/09 11:32:46;;;;;;;21.43;10.53;;;3.10;99.90;;;;;;4921624;29;20393;-86
2021/12/09 11:35:20;;;;;;;21.00;10.50;;;2.70;99.90;;;;;;4920118;29;20058;-87
2021/12/09 11:38:02;;;;;;;23.40;9.80;;;3.10;99.90;;;;;;4920408;29;20046;-86
2021/12/09 11:40:50;;;;;;;21.23;10.93;;;2.70;99.90;;;;;;4921552;29;20389;-87
2021/12/09 11:43:29;;;;;;;22.60;10.40;;;2.70;99.90;;;;;;4938612;29;20532;-88
2021/12/09 11:46:00;;;;;;;22.10;11.23;;;3.10;99.90;;;;;;4937307;29;20044;-86
2021/12/09 11:48:27;;;;;;;24.57;11.23;;;3.80;99.90;;;;;;4935594;29;20067;-86
2021/12/09 11:50:55;;;;;;;25.73;11.83;;;3.20;99.90;;;;;;4937417;29;20047;-87
2021/12/09 11:53:55;;;;;;;20.13;11.00;;;2.70;99.90;;;;;;4919918;29;20154;-85
2021/12/09 11:56:28;;;;;;;18.97;9.90;;;3.10;99.90;;;;;;4916500;29;20099;-83
2021/12/09 12:07:59;;;;;;;19.80;9.40;;;2.70;99.90;;;;;;4876836;29;20045;-86
2021/12/09 12:14:06;;;;;;;23.63;12.67;;;2.90;99.90;;;;;;4918529;29;20052;-86
2021/12/09 12:22:11;;;;;;;18.63;10.17;;;2.90;99.90;;;;;;4936190;29;20138;-86
2021/12/09 12:27:43;;;;;;;16.57;8.63;;;2.90;99.90;;;;;;4919364;29;20118;-86
2021/12/09 12:33:06;;;;;;;17.37;9.33;;;2.90;99.90;;;;;;4918860;29;20036;-86
2021/12/09 12:38:30;;;;;;;18.97;9.40;;;2.90;99.90;;;;;;4947993;28;20092;-86
2021/12/09 12:41:11;;;;;;;16.63;8.93;;;2.90;99.90;;;;;;4955144;28;20040;-85
2021/12/09 12:43:50;;;;;;;19.60;10.20;;;2.90;99.90;;;;;;4943434;29;20050;-86
2021/12/09 12:46:42;;;;;;;22.27;10.33;;;2.90;99.90;;;;;;4920773;29;20079;-87
2021/12/09 12:52:09;;;;;;;19.07;10.13;;;3.50;99.90;;;;;;4930747;29;20130;-86
2021/12/09 12:54:54;;;;;;;19.97;10.27;;;2.90;99.90;;;;;;4917560;29;20052;-85
2021/12/09 12:57:33;;;;;;;19.43;10.43;;;3.40;99.90;;;;;;4936052;29;20500;-86
2021/12/09 13:00:07;;;;;;;21.70;10.30;;;2.90;99.90;;;;;;4935274;29;20059;-83
2021/12/09 13:13:36;;;;;;;24.40;11.48;;;3.00;99.90;;;;;;4918094;29;20432;-85
2021/12/09 13:16:19;;;;;;;22.93;11.47;;;3.00;99.90;;;;;;4918740;29;20559;-85
2021/12/09 13:21:58;;;;;;;23.00;10.63;;;3.00;99.90;;;;;;4934523;29;20551;-85
2021/12/09 13:24:40;;;;;;;23.03;10.97;;;3.00;99.90;;;;;;4935631;29;20047;-85
2021/12/09 13:35:30;;;;;;;22.90;10.70;;;3.10;99.90;;;;;;4917577;29;20059;-85
2021/12/09 13:46:41;;;;;;;24.70;12.40;;;2.30;99.90;;;;;;4935847;29;20083;-86
2021/12/09 13:51:57;;;;;;;26.57;11.87;;;3.00;99.90;;;;;;4918374;29;20064;-85
2021/12/09 13:54:29;;;;;;;26.00;12.60;;;3.00;99.90;;;;;;4934713;29;20055;-85
2021/12/09 13:57:06;;;;;;;23.23;11.80;;;3.00;99.90;;;;;;4935493;29;20050;-85
2021/12/09 13:59:36;;;;;;;25.83;12.37;;;3.90;99.90;;;;;;4935778;29;20039;-85
2021/12/09 14:02:20;;;;;;;22.83;11.93;;;3.50;99.90;;;;;;4933360;29;20131;-86
2021/12/09 14:05:01;;;;;;;23.67;12.37;;;3.10;99.90;;;;;;4915564;29;20058;-85
2021/12/09 14:07:44;;;;;;;24.97;11.23;;;3.70;99.90;;;;;;4918558;29;20104;-85